Cheyenne, WY (82008)

8:43 AM MDT on July 28, 2016 (GMT -0600)
South High School | | Change Station

Elev 6155 ft 41.11 °N, 104.83 °W | Updated 7 minutes ago

Light Rain Showers
Light Showers Rain Fog
57.9 °F
Feels Like 57.9 °F
N
9.4
Wind Variable Wind from ESE

Today
High -- | Low -- °F
--% Chance of Precip.
Yesterday
High -- | Low -- °F
Precip. -- in
Pressure 30.29 in
Visibility 0.5 miles
Clouds
Dew Point 56 °F
Humidity 95%
Rainfall 0.00 in
Snow Depth Not available.
5:51 AM 8:19 PM
Waning Crescent, 31% visible
SPECI KFEW 281359Z AUTO 08007KT 1/2SM -SHRA FG VV002 15/15 A3029 RMK AO2 SHRAB58 $
Pressure 30.29 in
Visibility 0.5 miles
Clouds
Dew Point 56 °F
Humidity 95%
Rainfall 0.00 in
Snow Depth Not available.
5:51 AM 8:19 PM
Waning Crescent, 31% visible
SPECI KFEW 281359Z AUTO 08007KT 1/2SM -SHRA FG VV002 15/15 A3029 RMK AO2 SHRAB58 $

10-Day Weather Forecast

Almanac

Astronomy

Jul. 28, 2016 Rise Set
Actual Time
Civil Twilight
Nautical Twilight
Astronomical Twilight
Moon
Length of Visible Light
Length of Day
Tomorrow will be .
, % of the Moon is Illuminated

Today's Extremes

State Highs State Lows

Community

WunderPhotos

Upload Photos

1,928,117 photos uploaded!

WunderBlog® & News

Nearby

Air Quality

  Air Quality AQ Index Pollutant
Not available.

Snow Depth

Station Depth Elevation

Earthquake Activity

City Distance Mag. Time & Date
Minimum magnitude displayed is 2.5.

Coastal Water Temperatures

Place Temperature

Stations

Nearby Weather Stations

Station Location Temp. Windchill Dew Point Humidity Wind Precip. Elev Updated Type
                   

Watches & Warnings

There are currently no watches in effect.